Schiedam, Netherlands
Current Conditions -  °F | °C
As of 5:25 PM on Thursday 23 Oct 2014 (Local Time) from EHRD Reporting Station
Overcast Overcast  
Wind Chill: 57°   Ceiling: 2200
Heat Index: 57°   Visibility: 6mi
Dew Point: 50°   Wind: 14mph
Humidity: 77%   Direction: 200°SSW
Pressure: 30.12"   Gusts: NA
Location:  51.92°N, 4.39°E
Report Text: EHRD 231525Z AUTO 20012KT 150V240 9999 SCT018 BKN022 OVC02514/10 Q1020 NOSIG
Loading
Personal Weather Stations






























Interactive Weather Map
Tropical Storm Tracking
New forecast layout! Learn more

10-Day Weather Forecast

Advertisements
Track Severe Weather on mobile